Airfield :
LOGIN :

Register | Disclaimer

   EN    FR    IT 

 










Legend :    VFR   Marginal VFR   IFR   Intensive IFR   Very Intensive IFR
Visi :
Ceiling :
>= 8 km
>= 3000ft
5 to 8 km
1000 to 3000 ft
1500m to 5 km
500 to 1000 ft
800 to 1500m
200 to 500 ft
< 800m
< 200 ft
Symbols :   Thunderstorms  Fog  Heavy snow  Heavy precipitations  Wind > 20 kt
SIGMETs :     Misc.  Thunderstorms  Icing  Turbulence  Mountain Waves  Volcanic Ashes







- Airport Elevation : 1367 ft
- IATA code : FDH


EDNY - Friedrichshafen

CURRENT METAR :
  • 191220Z 23008KT CAVOK 26/13 Q1016

EXPIRED METARs :
  • 191150Z 25006KT 200V290 CAVOK 26/13 Q1017
  • 191120Z 23005KT 190V270 CAVOK 26/14 Q1017
  • 191050Z 26007KT 200V320 CAVOK 25/14 Q1017
  • 191020Z VRB04KT CAVOK 25/14 Q1017
  • 190950Z 24007KT 200V290 CAVOK 24/13 Q1017

TAF TAF EDNY
Valid from the 19 at 12:00 until the 20 at 12:00 UTC


191100Z 1912/2012 24005KT CAVOK
BECMG 1915/1917 VRB03KT
BECMG 2009/2011 24005KT
No reported NOTAMs for that airfield.



MET'MAP, your aeronautical weather chart ! - Copyright ORBIFLY December 2007 - Disclaimer

ORBIFLY MET'MAP TEAM :

Programming & Development : Alexandra Zaïnal
Concept & Development : Baudouin d'Aumeries
Co-Development & Prog : Marc-Olivier Méhu
Technical & hardware support : Manuel Goepfert

Contact : metmap@orbifly.com




SOURCES & CREDITS :

   NOAA